sensor_id;sensor_type;location;lat;lon;timestamp;temperature;humidity
16032;DHT22;8120;48.308;8.914;2023-05-10T00:01:39;11.70;99.90
16032;DHT22;8120;48.308;8.914;2023-05-10T00:04:07;11.60;99.90
16032;DHT22;8120;48.308;8.914;2023-05-10T00:06:35;11.60;98.60
16032;DHT22;8120;48.308;8.914;2023-05-10T00:09:03;11.50;97.90
16032;DHT22;8120;48.308;8.914;2023-05-10T00:11:31;11.50;97.00
16032;DHT22;8120;48.308;8.914;2023-05-10T00:13:59;11.50;96.30
16032;DHT22;8120;48.308;8.914;2023-05-10T00:16:28;11.50;95.80
16032;DHT22;8120;48.308;8.914;2023-05-10T00:18:56;11.40;95.40
16032;DHT22;8120;48.308;8.914;2023-05-10T00:21:24;11.40;95.00
16032;DHT22;8120;48.308;8.914;2023-05-10T00:23:52;11.40;94.60
16032;DHT22;8120;48.308;8.914;2023-05-10T00:26:20;11.40;94.00
16032;DHT22;8120;48.308;8.914;2023-05-10T00:28:48;11.40;94.70
16032;DHT22;8120;48.308;8.914;2023-05-10T00:31:16;11.30;94.90
16032;DHT22;8120;48.308;8.914;2023-05-10T00:33:45;11.30;95.00
16032;DHT22;8120;48.308;8.914;2023-05-10T00:36:13;11.30;95.30
16032;DHT22;8120;48.308;8.914;2023-05-10T00:38:40;11.30;95.70
16032;DHT22;8120;48.308;8.914;2023-05-10T00:41:08;11.30;95.40
16032;DHT22;8120;48.308;8.914;2023-05-10T00:43:36;11.20;94.90
16032;DHT22;8120;48.308;8.914;2023-05-10T00:46:04;11.20;95.40
16032;DHT22;8120;48.308;8.914;2023-05-10T00:48:32;11.20;95.30
16032;DHT22;8120;48.308;8.914;2023-05-10T00:51:02;11.20;96.10
16032;DHT22;8120;48.308;8.914;2023-05-10T00:53:31;11.10;95.70
16032;DHT22;8120;48.308;8.914;2023-05-10T00:55:59;11.10;96.40
16032;DHT22;8120;48.308;8.914;2023-05-10T00:58:28;11.00;96.10
16032;DHT22;8120;48.308;8.914;2023-05-10T01:00:57;11.00;96.70
16032;DHT22;8120;48.308;8.914;2023-05-10T01:03:26;11.00;97.00
16032;DHT22;8120;48.308;8.914;2023-05-10T01:05:54;11.00;97.20
16032;DHT22;8120;48.308;8.914;2023-05-10T01:08:23;11.00;97.80
16032;DHT22;8120;48.308;8.914;2023-05-10T01:10:52;11.00;97.60
16032;DHT22;8120;48.308;8.914;2023-05-10T01:13:31;11.00;97.80
16032;DHT22;8120;48.308;8.914;2023-05-10T01:16:00;10.90;97.90
16032;DHT22;8120;48.308;8.914;2023-05-10T01:18:31;10.90;98.10
16032;DHT22;8120;48.308;8.914;2023-05-10T01:21:11;10.90;98.10
16032;DHT22;8120;48.308;8.914;2023-05-10T01:30:13;10.90;99.90
16032;DHT22;8120;48.308;8.914;2023-05-10T01:32:55;10.90;99.90
16032;DHT22;8120;48.308;8.914;2023-05-10T01:35:30;10.80;99.90
16032;DHT22;8120;48.308;8.914;2023-05-10T01:38:10;10.80;99.90
16032;DHT22;8120;48.308;8.914;2023-05-10T01:40:47;10.80;99.90
16032;DHT22;8120;48.308;8.914;2023-05-10T01:43:19;10.80;99.90
16032;DHT22;8120;48.308;8.914;2023-05-10T01:45:57;10.70;99.90
16032;DHT22;8120;48.308;8.914;2023-05-10T01:48:29;10.70;99.90
16032;DHT22;8120;48.308;8.914;2023-05-10T01:50:58;10.70;99.90
16032;DHT22;8120;48.308;8.914;2023-05-10T01:53:26;10.60;99.90
16032;DHT22;8120;48.308;8.914;2023-05-10T01:55:55;10.60;99.90
16032;DHT22;8120;48.308;8.914;2023-05-10T01:58:28;10.50;99.90
16032;DHT22;8120;48.308;8.914;2023-05-10T02:00:58;10.50;99.90
16032;DHT22;8120;48.308;8.914;2023-05-10T02:03:29;10.40;99.90
16032;DHT22;8120;48.308;8.914;2023-05-10T02:05:59;10.40;99.90
16032;DHT22;8120;48.308;8.914;2023-05-10T02:08:27;10.40;99.90
16032;DHT22;8120;48.308;8.914;2023-05-10T02:10:56;10.40;99.90
16032;DHT22;8120;48.308;8.914;2023-05-10T02:13:25;10.40;99.90
16032;DHT22;8120;48.308;8.914;2023-05-10T02:15:55;10.40;99.90
16032;DHT22;8120;48.308;8.914;2023-05-10T02:18:25;10.40;99.90
16032;DHT22;8120;48.308;8.914;2023-05-10T02:20:56;10.40;99.90
16032;DHT22;8120;48.308;8.914;2023-05-10T02:23:26;10.50;99.90
16032;DHT22;8120;48.308;8.914;2023-05-10T02:25:55;10.50;99.90
16032;DHT22;8120;48.308;8.914;2023-05-10T02:28:24;10.50;99.90
16032;DHT22;8120;48.308;8.914;2023-05-10T02:30:54;10.40;99.90
16032;DHT22;8120;48.308;8.914;2023-05-10T02:33:23;10.40;99.90
16032;DHT22;8120;48.308;8.914;2023-05-10T02:35:52;10.40;99.90
16032;DHT22;8120;48.308;8.914;2023-05-10T02:38:22;10.40;99.90
16032;DHT22;8120;48.308;8.914;2023-05-10T02:40:52;10.40;99.90
16032;DHT22;8120;48.308;8.914;2023-05-10T02:43:23;10.30;99.90
16032;DHT22;8120;48.308;8.914;2023-05-10T02:45:52;10.30;99.90
16032;DHT22;8120;48.308;8.914;2023-05-10T02:48:20;10.30;99.90
16032;DHT22;8120;48.308;8.914;2023-05-10T02:50:50;10.30;99.90
16032;DHT22;8120;48.308;8.914;2023-05-10T02:53:23;10.30;99.90
16032;DHT22;8120;48.308;8.914;2023-05-10T02:55:58;10.30;99.90
16032;DHT22;8120;48.308;8.914;2023-05-10T02:58:27;10.20;99.90
16032;DHT22;8120;48.308;8.914;2023-05-10T03:00:55;10.10;99.90
16032;DHT22;8120;48.308;8.914;2023-05-10T03:03:22;10.10;99.90
16032;DHT22;8120;48.308;8.914;2023-05-10T03:05:50;10.20;99.90
16032;DHT22;8120;48.308;8.914;2023-05-10T03:08:21;10.10;99.90
16032;DHT22;8120;48.308;8.914;2023-05-10T03:10:55;10.20;99.90
16032;DHT22;8120;48.308;8.914;2023-05-10T03:13:31;10.10;99.90
16032;DHT22;8120;48.308;8.914;2023-05-10T03:16:07;10.20;99.90
16032;DHT22;8120;48.308;8.914;2023-05-10T03:18:42;10.20;99.90
16032;DHT22;8120;48.308;8.914;2023-05-10T03:21:11;10.10;99.90
16032;DHT22;8120;48.308;8.914;2023-05-10T03:23:47;10.10;99.90
16032;DHT22;8120;48.308;8.914;2023-05-10T03:26:21;10.10;99.90
16032;DHT22;8120;48.308;8.914;2023-05-10T03:28:52;10.10;99.90
16032;DHT22;8120;48.308;8.914;2023-05-10T03:31:21;10.00;99.90
16032;DHT22;8120;48.308;8.914;2023-05-10T03:33:50;10.00;99.90
16032;DHT22;8120;48.308;8.914;2023-05-10T03:36:18;10.00;99.90
16032;DHT22;8120;48.308;8.914;2023-05-10T03:38:47;9.90;99.90
16032;DHT22;8120;48.308;8.914;2023-05-10T03:41:16;9.90;99.90
16032;DHT22;8120;48.308;8.914;2023-05-10T03:43:43;9.90;99.90
16032;DHT22;8120;48.308;8.914;2023-05-10T03:46:11;9.90;99.90
16032;DHT22;8120;48.308;8.914;2023-05-10T03:48:39;9.90;99.90
16032;DHT22;8120;48.308;8.914;2023-05-10T03:51:07;9.90;99.90
16032;DHT22;8120;48.308;8.914;2023-05-10T03:53:35;10.00;99.90
16032;DHT22;8120;48.308;8.914;2023-05-10T03:56:04;9.90;99.90
16032;DHT22;8120;48.308;8.914;2023-05-10T03:58:32;9.90;99.90
16032;DHT22;8120;48.308;8.914;2023-05-10T04:01:01;10.00;99.90
16032;DHT22;8120;48.308;8.914;2023-05-10T04:03:29;10.00;99.90
16032;DHT22;8120;48.308;8.914;2023-05-10T04:06:01;10.00;99.90
16032;DHT22;8120;48.308;8.914;2023-05-10T04:08:29;10.00;99.90
16032;DHT22;8120;48.308;8.914;2023-05-10T04:11:06;10.00;99.90
16032;DHT22;8120;48.308;8.914;2023-05-10T04:13:35;10.00;99.90
16032;DHT22;8120;48.308;8.914;2023-05-10T04:16:03;10.00;99.90
16032;DHT22;8120;48.308;8.914;2023-05-10T04:18:31;10.10;99.50
16032;DHT22;8120;48.308;8.914;2023-05-10T04:20:59;10.10;98.40
16032;DHT22;8120;48.308;8.914;2023-05-10T04:23:27;10.20;98.40
16032;DHT22;8120;48.308;8.914;2023-05-10T04:25:59;10.20;99.10
16032;DHT22;8120;48.308;8.914;2023-05-10T04:28:29;10.30;98.20
16032;DHT22;8120;48.308;8.914;2023-05-10T04:31:01;10.30;97.50
16032;DHT22;8120;48.308;8.914;2023-05-10T04:33:29;10.40;97.10
16032;DHT22;8120;48.308;8.914;2023-05-10T04:35:57;10.40;96.50
16032;DHT22;8120;48.308;8.914;2023-05-10T04:38:25;10.40;96.00
16032;DHT22;8120;48.308;8.914;2023-05-10T04:40:53;10.40;96.20
16032;DHT22;8120;48.308;8.914;2023-05-10T04:43:21;10.40;96.40
16032;DHT22;8120;48.308;8.914;2023-05-10T04:45:50;10.40;96.60
16032;DHT22;8120;48.308;8.914;2023-05-10T04:48:18;10.40;96.60
16032;DHT22;8120;48.308;8.914;2023-05-10T04:50:46;10.40;96.80
16032;DHT22;8120;48.308;8.914;2023-05-10T04:53:14;10.40;96.90
16032;DHT22;8120;48.308;8.914;2023-05-10T04:55:42;10.40;96.80
16032;DHT22;8120;48.308;8.914;2023-05-10T04:58:10;10.50;96.70
16032;DHT22;8120;48.308;8.914;2023-05-10T05:00:38;10.50;96.60
16032;DHT22;8120;48.308;8.914;2023-05-10T05:03:07;10.50;96.60
16032;DHT22;8120;48.308;8.914;2023-05-10T05:05:35;10.50;96.80
16032;DHT22;8120;48.308;8.914;2023-05-10T05:08:03;10.50;97.00
16032;DHT22;8120;48.308;8.914;2023-05-10T05:10:31;10.50;97.00
16032;DHT22;8120;48.308;8.914;2023-05-10T05:12:59;10.50;96.90
16032;DHT22;8120;48.308;8.914;2023-05-10T05:15:27;10.50;97.20
16032;DHT22;8120;48.308;8.914;2023-05-10T05:17:55;10.50;97.60
16032;DHT22;8120;48.308;8.914;2023-05-10T05:20:24;10.50;98.20
16032;DHT22;8120;48.308;8.914;2023-05-10T05:22:52;10.50;99.00
16032;DHT22;8120;48.308;8.914;2023-05-10T05:25:20;10.60;98.60
16032;DHT22;8120;48.308;8.914;2023-05-10T05:27:48;10.60;98.40
16032;DHT22;8120;48.308;8.914;2023-05-10T05:30:16;10.70;98.40
16032;DHT22;8120;48.308;8.914;2023-05-10T05:32:44;10.60;98.20
16032;DHT22;8120;48.308;8.914;2023-05-10T05:35:13;10.70;98.00
16032;DHT22;8120;48.308;8.914;2023-05-10T05:37:43;10.70;98.00
16032;DHT22;8120;48.308;8.914;2023-05-10T05:40:13;10.70;97.50
16032;DHT22;8120;48.308;8.914;2023-05-10T05:42:41;10.80;97.40
16032;DHT22;8120;48.308;8.914;2023-05-10T05:45:09;10.90;96.60
16032;DHT22;8120;48.308;8.914;2023-05-10T05:47:40;10.80;94.20
16032;DHT22;8120;48.308;8.914;2023-05-10T05:50:08;10.80;94.50
16032;DHT22;8120;48.308;8.914;2023-05-10T05:52:36;10.90;93.90
16032;DHT22;8120;48.308;8.914;2023-05-10T05:55:06;11.00;93.60
16032;DHT22;8120;48.308;8.914;2023-05-10T05:57:34;11.10;93.40
16032;DHT22;8120;48.308;8.914;2023-05-10T06:00:03;11.20;92.50
16032;DHT22;8120;48.308;8.914;2023-05-10T06:02:31;11.10;92.20
16032;DHT22;8120;48.308;8.914;2023-05-10T06:04:59;11.20;91.90
16032;DHT22;8120;48.308;8.914;2023-05-10T06:07:26;11.30;90.90
16032;DHT22;8120;48.308;8.914;2023-05-10T06:09:54;11.40;91.20
16032;DHT22;8120;48.308;8.914;2023-05-10T06:12:23;11.50;90.50
16032;DHT22;8120;48.308;8.914;2023-05-10T06:14:51;11.60;90.20
16032;DHT22;8120;48.308;8.914;2023-05-10T06:17:19;11.60;89.10
16032;DHT22;8120;48.308;8.914;2023-05-10T06:19:48;11.70;89.30
16032;DHT22;8120;48.308;8.914;2023-05-10T06:22:16;11.80;88.20
16032;DHT22;8120;48.308;8.914;2023-05-10T06:24:44;11.80;88.00
16032;DHT22;8120;48.308;8.914;2023-05-10T06:27:12;11.70;87.50
16032;DHT22;8120;48.308;8.914;2023-05-10T06:29:41;11.50;87.50
16032;DHT22;8120;48.308;8.914;2023-05-10T06:32:09;11.40;87.20
16032;DHT22;8120;48.308;8.914;2023-05-10T06:34:36;11.20;89.10
16032;DHT22;8120;48.308;8.914;2023-05-10T06:37:04;11.30;89.30
16032;DHT22;8120;48.308;8.914;2023-05-10T06:39:32;11.40;89.20
16032;DHT22;8120;48.308;8.914;2023-05-10T06:42:00;11.30;89.10
16032;DHT22;8120;48.308;8.914;2023-05-10T06:44:31;11.10;89.20
16032;DHT22;8120;48.308;8.914;2023-05-10T06:47:00;11.10;90.60
16032;DHT22;8120;48.308;8.914;2023-05-10T06:49:28;11.00;91.90
16032;DHT22;8120;48.308;8.914;2023-05-10T06:51:56;11.10;91.70
16032;DHT22;8120;48.308;8.914;2023-05-10T06:54:24;11.10;92.30
16032;DHT22;8120;48.308;8.914;2023-05-10T06:56:51;11.20;92.10
16032;DHT22;8120;48.308;8.914;2023-05-10T06:59:19;11.30;91.50
16032;DHT22;8120;48.308;8.914;2023-05-10T07:01:48;11.40;90.90
16032;DHT22;8120;48.308;8.914;2023-05-10T07:04:17;11.40;90.80
16032;DHT22;8120;48.308;8.914;2023-05-10T07:06:45;11.40;89.90
16032;DHT22;8120;48.308;8.914;2023-05-10T07:09:13;11.30;89.90
16032;DHT22;8120;48.308;8.914;2023-05-10T07:11:41;11.30;90.80
16032;DHT22;8120;48.308;8.914;2023-05-10T07:14:09;11.40;91.60
16032;DHT22;8120;48.308;8.914;2023-05-10T07:16:37;11.50;91.10
16032;DHT22;8120;48.308;8.914;2023-05-10T07:19:05;11.60;91.30
16032;DHT22;8120;48.308;8.914;2023-05-10T07:21:34;11.80;90.10
16032;DHT22;8120;48.308;8.914;2023-05-10T07:24:02;12.00;89.30
16032;DHT22;8120;48.308;8.914;2023-05-10T07:26:30;12.20;88.20
16032;DHT22;8120;48.308;8.914;2023-05-10T07:28:58;12.40;86.20
16032;DHT22;8120;48.308;8.914;2023-05-10T07:31:26;12.50;86.10
16032;DHT22;8120;48.308;8.914;2023-05-10T07:33:54;12.50;85.90
16032;DHT22;8120;48.308;8.914;2023-05-10T07:36:22;12.50;84.90
16032;DHT22;8120;48.308;8.914;2023-05-10T07:38:51;12.30;83.50
16032;DHT22;8120;48.308;8.914;2023-05-10T07:41:19;12.30;84.60
16032;DHT22;8120;48.308;8.914;2023-05-10T07:43:47;12.60;85.50
16032;DHT22;8120;48.308;8.914;2023-05-10T07:46:15;12.80;82.00
16032;DHT22;8120;48.308;8.914;2023-05-10T07:48:43;13.10;81.00
16032;DHT22;8120;48.308;8.914;2023-05-10T07:51:11;13.10;79.90
16032;DHT22;8120;48.308;8.914;2023-05-10T07:53:38;13.30;78.10
16032;DHT22;8120;48.308;8.914;2023-05-10T07:56:25;13.00;78.30
16032;DHT22;8120;48.308;8.914;2023-05-10T07:58:56;12.80;77.70
16032;DHT22;8120;48.308;8.914;2023-05-10T08:01:24;13.00;79.00
16032;DHT22;8120;48.308;8.914;2023-05-10T08:03:52;13.10;78.20
16032;DHT22;8120;48.308;8.914;2023-05-10T08:06:20;13.20;77.30
16032;DHT22;8120;48.308;8.914;2023-05-10T08:08:49;13.40;79.60
16032;DHT22;8120;48.308;8.914;2023-05-10T08:11:17;13.40;79.00
16032;DHT22;8120;48.308;8.914;2023-05-10T08:13:47;13.30;80.00
16032;DHT22;8120;48.308;8.914;2023-05-10T08:16:15;13.00;78.40
16032;DHT22;8120;48.308;8.914;2023-05-10T08:18:45;12.80;78.80
16032;DHT22;8120;48.308;8.914;2023-05-10T08:21:14;12.80;79.30
16032;DHT22;8120;48.308;8.914;2023-05-10T08:23:42;12.60;79.50
16032;DHT22;8120;48.308;8.914;2023-05-10T08:26:11;12.70;78.90
16032;DHT22;8120;48.308;8.914;2023-05-10T08:28:39;12.80;78.50
16032;DHT22;8120;48.308;8.914;2023-05-10T08:31:08;13.10;79.00
16032;DHT22;8120;48.308;8.914;2023-05-10T08:33:36;13.20;77.30
16032;DHT22;8120;48.308;8.914;2023-05-10T08:36:04;13.30;78.00
16032;DHT22;8120;48.308;8.914;2023-05-10T08:38:32;13.20;77.10
16032;DHT22;8120;48.308;8.914;2023-05-10T08:41:02;13.30;77.90
16032;DHT22;8120;48.308;8.914;2023-05-10T08:43:30;13.20;78.10
16032;DHT22;8120;48.308;8.914;2023-05-10T08:46:00;13.00;77.50
16032;DHT22;8120;48.308;8.914;2023-05-10T08:48:32;13.00;77.40
16032;DHT22;8120;48.308;8.914;2023-05-10T08:51:02;13.10;77.90
16032;DHT22;8120;48.308;8.914;2023-05-10T08:53:31;13.30;77.20
16032;DHT22;8120;48.308;8.914;2023-05-10T08:56:03;13.10;77.30
16032;DHT22;8120;48.308;8.914;2023-05-10T08:58:31;13.00;76.60
16032;DHT22;8120;48.308;8.914;2023-05-10T09:01:00;12.90;79.40
16032;DHT22;8120;48.308;8.914;2023-05-10T09:03:30;13.00;78.60
16032;DHT22;8120;48.308;8.914;2023-05-10T09:05:58;13.20;78.60
16032;DHT22;8120;48.308;8.914;2023-05-10T09:08:27;13.10;76.80
16032;DHT22;8120;48.308;8.914;2023-05-10T09:10:55;13.10;75.90
16032;DHT22;8120;48.308;8.914;2023-05-10T09:13:24;13.10;76.00
16032;DHT22;8120;48.308;8.914;2023-05-10T09:15:53;13.20;75.40
16032;DHT22;8120;48.308;8.914;2023-05-10T09:18:22;13.30;74.30
16032;DHT22;8120;48.308;8.914;2023-05-10T09:20:54;13.20;77.20
16032;DHT22;8120;48.308;8.914;2023-05-10T09:23:22;13.50;75.30
16032;DHT22;8120;48.308;8.914;2023-05-10T09:26:02;13.50;74.40
16032;DHT22;8120;48.308;8.914;2023-05-10T09:28:32;13.40;75.80
16032;DHT22;8120;48.308;8.914;2023-05-10T09:31:00;13.30;73.60
16032;DHT22;8120;48.308;8.914;2023-05-10T09:33:28;13.40;75.50
16032;DHT22;8120;48.308;8.914;2023-05-10T09:36:06;13.60;73.40
16032;DHT22;8120;48.308;8.914;2023-05-10T09:38:45;13.40;73.10
16032;DHT22;8120;48.308;8.914;2023-05-10T09:41:17;13.40;74.30
16032;DHT22;8120;48.308;8.914;2023-05-10T09:43:45;13.70;73.40
16032;DHT22;8120;48.308;8.914;2023-05-10T09:46:14;13.90;71.80
16032;DHT22;8120;48.308;8.914;2023-05-10T09:48:44;14.10;73.10
16032;DHT22;8120;48.308;8.914;2023-05-10T09:51:20;14.30;71.70
16032;DHT22;8120;48.308;8.914;2023-05-10T09:53:49;14.40;73.10
16032;DHT22;8120;48.308;8.914;2023-05-10T09:56:36;14.50;71.50
16032;DHT22;8120;48.308;8.914;2023-05-10T09:59:07;15.00;71.30
16032;DHT22;8120;48.308;8.914;2023-05-10T10:01:36;14.90;70.40
16032;DHT22;8120;48.308;8.914;2023-05-10T10:04:05;15.40;68.00
16032;DHT22;8120;48.308;8.914;2023-05-10T10:06:39;15.20;67.20
16032;DHT22;8120;48.308;8.914;2023-05-10T10:09:07;15.90;68.70
16032;DHT22;8120;48.308;8.914;2023-05-10T10:11:36;16.00;65.70
16032;DHT22;8120;48.308;8.914;2023-05-10T10:14:05;15.60;65.60
16032;DHT22;8120;48.308;8.914;2023-05-10T10:16:33;15.50;68.60
16032;DHT22;8120;48.308;8.914;2023-05-10T10:19:01;15.60;64.90
16032;DHT22;8120;48.308;8.914;2023-05-10T10:21:29;15.50;64.10
16032;DHT22;8120;48.308;8.914;2023-05-10T10:23:58;15.60;64.90
16032;DHT22;8120;48.308;8.914;2023-05-10T10:26:26;15.00;67.20
16032;DHT22;8120;48.308;8.914;2023-05-10T10:29:04;15.30;67.30
16032;DHT22;8120;48.308;8.914;2023-05-10T10:31:39;15.40;64.90
16032;DHT22;8120;48.308;8.914;2023-05-10T10:34:09;15.70;63.80
16032;DHT22;8120;48.308;8.914;2023-05-10T10:36:40;16.00;62.30
16032;DHT22;8120;48.308;8.914;2023-05-10T10:39:11;15.80;63.30
16032;DHT22;8120;48.308;8.914;2023-05-10T10:41:50;15.90;64.60
16032;DHT22;8120;48.308;8.914;2023-05-10T10:44:36;15.70;64.30
16032;DHT22;8120;48.308;8.914;2023-05-10T10:47:07;15.60;63.10
16032;DHT22;8120;48.308;8.914;2023-05-10T10:49:42;15.80;64.60
16032;DHT22;8120;48.308;8.914;2023-05-10T10:52:23;15.90;63.80
16032;DHT22;8120;48.308;8.914;2023-05-10T10:55:00;15.60;65.30
16032;DHT22;8120;48.308;8.914;2023-05-10T10:57:31;15.40;64.00
16032;DHT22;8120;48.308;8.914;2023-05-10T11:00:19;15.40;68.90
16032;DHT22;8120;48.308;8.914;2023-05-10T11:02:48;14.50;65.50
16032;DHT22;8120;48.308;8.914;2023-05-10T11:05:35;13.90;67.60
16032;DHT22;8120;48.308;8.914;2023-05-10T11:08:14;13.00;68.30
16032;DHT22;8120;48.308;8.914;2023-05-10T11:10:52;13.00;68.30
16032;DHT22;8120;48.308;8.914;2023-05-10T11:13:30;12.80;68.60
16032;DHT22;8120;48.308;8.914;2023-05-10T11:15:59;12.60;68.00
16032;DHT22;8120;48.308;8.914;2023-05-10T11:18:37;12.50;68.80
16032;DHT22;8120;48.308;8.914;2023-05-10T11:21:08;12.70;67.60
16032;DHT22;8120;48.308;8.914;2023-05-10T11:23:51;12.80;67.80
16032;DHT22;8120;48.308;8.914;2023-05-10T11:26:24;12.80;66.70
16032;DHT22;8120;48.308;8.914;2023-05-10T11:28:54;12.80;66.20
16032;DHT22;8120;48.308;8.914;2023-05-10T11:31:25;12.60;66.30
16032;DHT22;8120;48.308;8.914;2023-05-10T11:33:55;12.90;65.90
16032;DHT22;8120;48.308;8.914;2023-05-10T11:36:25;12.90;66.70
16032;DHT22;8120;48.308;8.914;2023-05-10T11:38:54;12.80;66.70
16032;DHT22;8120;48.308;8.914;2023-05-10T11:41:25;12.60;67.10
16032;DHT22;8120;48.308;8.914;2023-05-10T11:43:54;12.50;67.40
16032;DHT22;8120;48.308;8.914;2023-05-10T11:46:23;12.50;68.30
16032;DHT22;8120;48.308;8.914;2023-05-10T11:48:54;12.70;68.40
16032;DHT22;8120;48.308;8.914;2023-05-10T11:51:23;12.50;68.40
16032;DHT22;8120;48.308;8.914;2023-05-10T11:53:53;12.50;69.20
16032;DHT22;8120;48.308;8.914;2023-05-10T11:56:23;12.30;70.30
16032;DHT22;8120;48.308;8.914;2023-05-10T11:58:53;12.40;70.10
16032;DHT22;8120;48.308;8.914;2023-05-10T12:01:22;12.30;70.10
16032;DHT22;8120;48.308;8.914;2023-05-10T12:03:52;12.30;70.40
16032;DHT22;8120;48.308;8.914;2023-05-10T12:06:21;12.40;69.00
16032;DHT22;8120;48.308;8.914;2023-05-10T12:08:49;12.40;68.30
16032;DHT22;8120;48.308;8.914;2023-05-10T12:11:19;12.80;68.10
16032;DHT22;8120;48.308;8.914;2023-05-10T12:13:50;13.10;67.50
16032;DHT22;8120;48.308;8.914;2023-05-10T12:16:19;13.30;64.50
16032;DHT22;8120;48.308;8.914;2023-05-10T12:18:48;13.40;63.70
16032;DHT22;8120;48.308;8.914;2023-05-10T12:21:18;13.60;63.90
16032;DHT22;8120;48.308;8.914;2023-05-10T12:26:15;14.20;63.20
16032;DHT22;8120;48.308;8.914;2023-05-10T12:28:43;14.40;63.50
16032;DHT22;8120;48.308;8.914;2023-05-10T12:31:13;14.30;62.40
16032;DHT22;8120;48.308;8.914;2023-05-10T12:33:42;14.40;63.60
16032;DHT22;8120;48.308;8.914;2023-05-10T12:36:11;14.50;63.50
16032;DHT22;8120;48.308;8.914;2023-05-10T12:38:41;14.20;64.70
16032;DHT22;8120;48.308;8.914;2023-05-10T12:41:11;14.40;62.30
16032;DHT22;8120;48.308;8.914;2023-05-10T12:43:39;14.60;61.10
16032;DHT22;8120;48.308;8.914;2023-05-10T12:46:08;14.80;62.60
16032;DHT22;8120;48.308;8.914;2023-05-10T12:48:38;14.60;62.40
16032;DHT22;8120;48.308;8.914;2023-05-10T12:51:07;14.50;61.70
16032;DHT22;8120;48.308;8.914;2023-05-10T12:53:36;14.60;61.60
16032;DHT22;8120;48.308;8.914;2023-05-10T12:56:04;15.10;61.60
16032;DHT22;8120;48.308;8.914;2023-05-10T12:58:32;15.60;61.60
16032;DHT22;8120;48.308;8.914;2023-05-10T13:01:02;15.70;60.80
16032;DHT22;8120;48.308;8.914;2023-05-10T13:03:31;15.20;59.50
16032;DHT22;8120;48.308;8.914;2023-05-10T13:06:00;15.00;60.40
16032;DHT22;8120;48.308;8.914;2023-05-10T13:08:28;15.30;61.90
16032;DHT22;8120;48.308;8.914;2023-05-10T13:11:00;15.20;61.00
16032;DHT22;8120;48.308;8.914;2023-05-10T13:13:28;15.60;60.90
16032;DHT22;8120;48.308;8.914;2023-05-10T13:15:56;15.70;61.10
16032;DHT22;8120;48.308;8.914;2023-05-10T13:18:23;15.90;60.40
16032;DHT22;8120;48.308;8.914;2023-05-10T13:20:53;15.40;61.10
16032;DHT22;8120;48.308;8.914;2023-05-10T13:23:23;14.80;62.00
16032;DHT22;8120;48.308;8.914;2023-05-10T13:25:51;14.80;62.30
16032;DHT22;8120;48.308;8.914;2023-05-10T13:28:19;15.10;62.50
16032;DHT22;8120;48.308;8.914;2023-05-10T13:30:47;15.60;60.60
16032;DHT22;8120;48.308;8.914;2023-05-10T13:33:15;15.40;58.00
16032;DHT22;8120;48.308;8.914;2023-05-10T13:35:44;15.10;60.00
16032;DHT22;8120;48.308;8.914;2023-05-10T13:38:12;14.90;59.20
16032;DHT22;8120;48.308;8.914;2023-05-10T13:40:41;15.10;60.80
16032;DHT22;8120;48.308;8.914;2023-05-10T13:43:09;15.30;61.80
16032;DHT22;8120;48.308;8.914;2023-05-10T13:45:37;15.20;60.40
16032;DHT22;8120;48.308;8.914;2023-05-10T13:48:05;15.00;59.30
16032;DHT22;8120;48.308;8.914;2023-05-10T13:50:33;15.00;61.00
16032;DHT22;8120;48.308;8.914;2023-05-10T13:53:01;15.60;60.00
16032;DHT22;8120;48.308;8.914;2023-05-10T13:55:29;15.50;60.60
16032;DHT22;8120;48.308;8.914;2023-05-10T13:57:58;15.70;58.80
16032;DHT22;8120;48.308;8.914;2023-05-10T14:00:26;15.60;58.30
16032;DHT22;8120;48.308;8.914;2023-05-10T14:02:54;15.50;58.50
16032;DHT22;8120;48.308;8.914;2023-05-10T14:05:22;15.30;57.70
16032;DHT22;8120;48.308;8.914;2023-05-10T14:07:52;14.90;57.30
16032;DHT22;8120;48.308;8.914;2023-05-10T14:10:20;14.80;58.60
16032;DHT22;8120;48.308;8.914;2023-05-10T14:12:48;14.80;59.60
16032;DHT22;8120;48.308;8.914;2023-05-10T14:15:17;15.20;60.30
16032;DHT22;8120;48.308;8.914;2023-05-10T14:17:45;15.10;59.40
16032;DHT22;8120;48.308;8.914;2023-05-10T14:20:13;14.80;58.90
16032;DHT22;8120;48.308;8.914;2023-05-10T14:22:41;14.90;58.70
16032;DHT22;8120;48.308;8.914;2023-05-10T14:25:09;14.80;60.20
16032;DHT22;8120;48.308;8.914;2023-05-10T14:27:36;15.20;59.90
16032;DHT22;8120;48.308;8.914;2023-05-10T14:30:06;15.10;59.50
16032;DHT22;8120;48.308;8.914;2023-05-10T14:32:35;15.00;59.50
16032;DHT22;8120;48.308;8.914;2023-05-10T14:35:05;15.10;59.50
16032;DHT22;8120;48.308;8.914;2023-05-10T14:37:36;15.20;58.40
16032;DHT22;8120;48.308;8.914;2023-05-10T14:40:05;15.40;58.20
16032;DHT22;8120;48.308;8.914;2023-05-10T14:42:33;15.70;58.30
16032;DHT22;8120;48.308;8.914;2023-05-10T14:45:01;15.70;58.00
16032;DHT22;8120;48.308;8.914;2023-05-10T14:47:29;15.40;57.70
16032;DHT22;8120;48.308;8.914;2023-05-10T14:49:59;15.20;58.00
16032;DHT22;8120;48.308;8.914;2023-05-10T14:52:27;15.10;59.50
16032;DHT22;8120;48.308;8.914;2023-05-10T14:54:54;14.80;58.90
16032;DHT22;8120;48.308;8.914;2023-05-10T14:57:23;14.90;59.70
16032;DHT22;8120;48.308;8.914;2023-05-10T14:59:51;15.20;59.70
16032;DHT22;8120;48.308;8.914;2023-05-10T15:02:19;15.20;60.00
16032;DHT22;8120;48.308;8.914;2023-05-10T15:04:48;14.80;60.30
16032;DHT22;8120;48.308;8.914;2023-05-10T15:07:18;14.40;62.00
16032;DHT22;8120;48.308;8.914;2023-05-10T15:09:45;14.40;62.50
16032;DHT22;8120;48.308;8.914;2023-05-10T15:12:13;14.20;62.90
16032;DHT22;8120;48.308;8.914;2023-05-10T15:14:41;14.10;63.40
16032;DHT22;8120;48.308;8.914;2023-05-10T15:17:09;14.20;60.70
16032;DHT22;8120;48.308;8.914;2023-05-10T15:19:37;14.40;62.10
16032;DHT22;8120;48.308;8.914;2023-05-10T15:22:05;14.30;61.90
16032;DHT22;8120;48.308;8.914;2023-05-10T15:24:34;14.20;61.70
16032;DHT22;8120;48.308;8.914;2023-05-10T15:27:02;14.00;62.80
16032;DHT22;8120;48.308;8.914;2023-05-10T15:29:30;14.00;62.70
16032;DHT22;8120;48.308;8.914;2023-05-10T15:31:59;14.10;63.60
16032;DHT22;8120;48.308;8.914;2023-05-10T15:34:29;13.90;64.20
16032;DHT22;8120;48.308;8.914;2023-05-10T15:36:59;13.90;63.40
16032;DHT22;8120;48.308;8.914;2023-05-10T15:39:27;13.90;65.00
16032;DHT22;8120;48.308;8.914;2023-05-10T15:41:56;13.90;65.20
16032;DHT22;8120;48.308;8.914;2023-05-10T15:44:24;14.10;65.70
16032;DHT22;8120;48.308;8.914;2023-05-10T15:46:52;14.00;66.20
16032;DHT22;8120;48.308;8.914;2023-05-10T15:49:21;13.70;67.20
16032;DHT22;8120;48.308;8.914;2023-05-10T15:51:48;13.70;67.10
16032;DHT22;8120;48.308;8.914;2023-05-10T15:54:16;13.30;68.80
16032;DHT22;8120;48.308;8.914;2023-05-10T15:56:44;13.20;70.30
16032;DHT22;8120;48.308;8.914;2023-05-10T15:59:14;13.30;70.00
16032;DHT22;8120;48.308;8.914;2023-05-10T16:01:41;13.20;70.30
16032;DHT22;8120;48.308;8.914;2023-05-10T16:04:09;12.90;71.60
16032;DHT22;8120;48.308;8.914;2023-05-10T16:06:37;12.60;73.30
16032;DHT22;8120;48.308;8.914;2023-05-10T16:09:05;12.50;73.20
16032;DHT22;8120;48.308;8.914;2023-05-10T16:11:33;12.60;74.00